createdAt,value
2023-01-17T00:02:05.878Z,3.42
2023-01-17T00:04:51.319Z,3.39
2023-01-17T00:07:39.111Z,3.35
2023-01-17T00:10:09.162Z,3.31
2023-01-17T00:12:38.417Z,3.26
2023-01-17T00:15:08.011Z,3.21
2023-01-17T00:17:35.605Z,3.16
2023-01-17T00:20:20.984Z,3.15
2023-01-17T00:23:06.044Z,3.16
2023-01-17T00:25:55.427Z,3.13
2023-01-17T00:28:24.033Z,3.10
2023-01-17T00:30:50.648Z,3.06
2023-01-17T00:33:17.466Z,3.03
2023-01-17T00:35:44.337Z,3.02
2023-01-17T00:38:12.399Z,2.98
2023-01-17T00:40:41.406Z,2.99
2023-01-17T00:43:27.577Z,2.97
2023-01-17T00:46:14.678Z,2.98
2023-01-17T00:49:00.915Z,2.99
2023-01-17T00:51:47.179Z,3.00
2023-01-17T00:54:33.064Z,3.02
2023-01-17T00:57:18.372Z,3.03
2023-01-17T01:00:03.659Z,3.04
2023-01-17T01:02:51.472Z,3.03
2023-01-17T01:05:36.757Z,3.04
2023-01-17T01:08:22.468Z,3.05
2023-01-17T01:11:08.125Z,3.04
2023-01-17T01:13:53.224Z,3.05
2023-01-17T01:16:39.320Z,3.03
2023-01-17T01:19:25.982Z,3.02
2023-01-17T01:22:11.142Z,3.01
2023-01-17T01:24:56.271Z,2.99
2023-01-17T01:27:41.835Z,2.99
2023-01-17T01:30:28.119Z,2.96
2023-01-17T01:33:13.564Z,2.96
2023-01-17T01:35:43.130Z,2.94
2023-01-17T01:38:10.876Z,2.93
2023-01-17T01:40:43.538Z,2.92
2023-01-17T01:43:13.999Z,2.92
2023-01-17T01:45:45.574Z,2.91
2023-01-17T01:48:25.889Z,2.89
2023-01-17T01:50:55.237Z,2.86
2023-01-17T01:53:23.571Z,2.84
2023-01-17T01:55:53.036Z,2.85
2023-01-17T01:58:24.057Z,2.84
2023-01-17T02:00:52.481Z,2.84
2023-01-17T02:03:23.714Z,2.84
2023-01-17T02:05:51.739Z,2.81
2023-01-17T02:08:24.002Z,2.80
2023-01-17T02:10:52.251Z,2.78
2023-01-17T02:13:21.288Z,2.78
2023-01-17T02:16:00.204Z,2.78
2023-01-17T02:18:39.566Z,2.77
2023-01-17T02:21:20.851Z,2.76
2023-01-17T02:24:26.028Z,2.77
2023-01-17T02:27:00.909Z,2.77
2023-01-17T02:30:05.256Z,2.77
2023-01-17T02:32:45.457Z,2.78
2023-01-17T02:35:20.355Z,2.76
2023-01-17T02:37:59.484Z,2.76
2023-01-17T02:40:30.809Z,2.75
2023-01-17T02:43:05.567Z,2.76
2023-01-17T02:45:33.360Z,2.74
2023-01-17T02:48:02.321Z,2.73
2023-01-17T02:50:42.229Z,2.72
2023-01-17T02:53:24.995Z,2.72
2023-01-17T02:55:58.859Z,2.72
2023-01-17T02:58:40.921Z,2.72
2023-01-17T03:01:19.625Z,2.72
2023-01-17T03:03:54.549Z,2.73
2023-01-17T03:06:30.269Z,2.74
2023-01-17T03:08:57.897Z,2.75
2023-01-17T03:11:27.193Z,2.76
2023-01-17T03:13:57.373Z,2.74
2023-01-17T03:16:27.373Z,2.72
2023-01-17T03:18:56.380Z,2.73
2023-01-17T03:21:25.129Z,2.73
2023-01-17T03:23:53.092Z,2.76
2023-01-17T03:26:20.761Z,2.75
2023-01-17T03:28:48.410Z,2.77
2023-01-17T03:31:16.695Z,2.77
2023-01-17T03:33:44.601Z,2.79
2023-01-17T03:36:13.751Z,2.79
2023-01-17T03:38:41.611Z,2.83
2023-01-17T03:41:09.563Z,2.83
2023-01-17T03:43:37.172Z,2.84
2023-01-17T03:46:07.099Z,2.86
2023-01-17T03:48:35.246Z,2.87
2023-01-17T03:51:02.921Z,2.91
2023-01-17T03:53:31.975Z,2.97
2023-01-17T03:56:00.643Z,3.03
2023-01-17T03:58:28.227Z,3.03
2023-01-17T04:00:55.870Z,3.03
2023-01-17T04:03:23.607Z,3.02
2023-01-17T04:05:51.181Z,3.03
2023-01-17T04:08:18.778Z,3.02
2023-01-17T04:10:47.835Z,3.03
2023-01-17T04:13:16.723Z,3.02
2023-01-17T04:15:46.413Z,3.00
2023-01-17T04:18:14.456Z,2.99
2023-01-17T04:20:42.031Z,2.99
2023-01-17T04:23:09.616Z,2.99
2023-01-17T04:25:37.235Z,2.98
2023-01-17T04:28:06.816Z,2.96
2023-01-17T04:30:34.688Z,2.94
2023-01-17T04:33:02.291Z,2.92
2023-01-17T04:35:31.181Z,2.91
2023-01-17T04:37:58.694Z,2.91
2023-01-17T04:40:26.495Z,2.87
2023-01-17T04:42:54.234Z,2.87
2023-01-17T04:45:23.112Z,2.86
2023-01-17T04:47:50.656Z,2.82
2023-01-17T04:50:18.457Z,2.82
2023-01-17T04:52:46.090Z,2.80
2023-01-17T04:55:13.787Z,2.77
2023-01-17T04:57:41.292Z,2.75
2023-01-17T05:00:10.022Z,2.74
2023-01-17T05:02:38.962Z,2.73
2023-01-17T05:05:08.194Z,2.73
2023-01-17T05:07:35.884Z,2.70
2023-01-17T05:10:04.504Z,2.69
2023-01-17T05:12:32.266Z,2.69
2023-01-17T05:14:59.783Z,2.68
2023-01-17T05:17:27.521Z,2.68
2023-01-17T05:19:56.578Z,2.66
2023-01-17T05:22:24.124Z,2.65
2023-01-17T05:24:51.664Z,2.65
2023-01-17T05:27:19.148Z,2.64
2023-01-17T05:29:46.692Z,2.61
2023-01-17T05:32:14.218Z,2.61
2023-01-17T05:34:41.720Z,2.59
2023-01-17T05:37:10.611Z,2.58
2023-01-17T05:39:38.105Z,2.57
2023-01-17T05:42:05.940Z,2.57
2023-01-17T05:44:33.423Z,2.58
2023-01-17T05:47:00.918Z,2.58
2023-01-17T05:49:28.421Z,2.57
2023-01-17T05:51:57.841Z,2.58
2023-01-17T05:54:26.671Z,2.60
2023-01-17T05:56:54.349Z,2.60
2023-01-17T05:59:32.388Z,2.59
2023-01-17T06:02:03.911Z,2.59
2023-01-17T06:04:31.505Z,2.58
2023-01-17T06:06:59.004Z,2.54
2023-01-17T06:09:27.843Z,2.52
2023-01-17T06:11:55.348Z,2.51
2023-01-17T06:14:22.917Z,2.49
2023-01-17T06:16:50.424Z,2.48
2023-01-17T06:19:17.925Z,2.48
2023-01-17T06:21:45.438Z,2.47
2023-01-17T06:24:13.203Z,2.48
2023-01-17T06:26:44.401Z,2.47
2023-01-17T06:29:12.208Z,2.47
2023-01-17T06:31:39.733Z,2.47
2023-01-17T06:34:07.325Z,2.44
2023-01-17T06:36:34.954Z,2.41
2023-01-17T06:39:02.459Z,2.39
2023-01-17T06:41:29.955Z,2.35
2023-01-17T06:43:58.768Z,2.34
2023-01-17T06:46:26.319Z,2.33
2023-01-17T06:48:53.881Z,2.32
2023-01-17T06:51:21.822Z,2.34
2023-01-17T06:53:49.483Z,2.31
2023-01-17T06:56:17.201Z,2.29
2023-01-17T06:58:44.696Z,2.23
2023-01-17T07:01:14.184Z,2.20
2023-01-17T07:03:41.977Z,2.16
2023-01-17T07:06:10.068Z,2.14
2023-01-17T07:08:37.932Z,2.14
2023-01-17T07:11:07.843Z,2.17
2023-01-17T07:13:36.611Z,2.15
2023-01-17T07:16:05.273Z,2.14
2023-01-17T07:18:35.359Z,2.13
2023-01-17T07:21:02.895Z,2.12
2023-01-17T07:23:30.490Z,2.11
2023-01-17T07:25:59.649Z,2.15
2023-01-17T07:28:29.035Z,2.16
2023-01-17T07:30:57.347Z,2.16
2023-01-17T07:33:24.928Z,2.18
2023-01-17T07:35:53.777Z,2.20
2023-01-17T07:38:21.632Z,2.22
2023-01-17T07:40:49.172Z,2.24
2023-01-17T07:43:17.289Z,2.25
2023-01-17T07:45:46.146Z,2.27
2023-01-17T07:48:14.126Z,2.28
2023-01-17T07:50:41.697Z,2.29
2023-01-17T07:53:11.210Z,2.28
2023-01-17T07:55:38.781Z,2.28
2023-01-17T07:58:06.382Z,2.25
2023-01-17T08:00:34.013Z,2.19
2023-01-17T08:03:02.116Z,2.14
2023-01-17T08:05:31.186Z,2.13
2023-01-17T08:07:58.780Z,2.06
2023-01-17T08:10:27.671Z,2.02
2023-01-17T08:12:55.343Z,2.00
2023-01-17T08:15:23.494Z,1.97
2023-01-17T08:17:53.168Z,1.96
2023-01-17T08:20:22.178Z,1.92
2023-01-17T08:22:49.825Z,1.92
2023-01-17T08:25:17.382Z,1.91
2023-01-17T08:27:46.247Z,1.91
2023-01-17T08:30:14.265Z,1.91
2023-01-17T08:32:41.794Z,1.89
2023-01-17T08:35:10.377Z,1.89
2023-01-17T08:37:39.009Z,1.81
2023-01-17T08:40:08.775Z,1.80
2023-01-17T08:42:39.202Z,1.79
2023-01-17T08:45:11.769Z,1.77
2023-01-17T08:47:39.465Z,1.76
2023-01-17T08:50:07.875Z,1.78
2023-01-17T08:52:35.999Z,1.80
2023-01-17T08:55:03.756Z,1.78
2023-01-17T08:57:31.942Z,1.76
2023-01-17T08:59:59.777Z,1.75
2023-01-17T09:02:28.627Z,1.72
2023-01-17T09:04:56.136Z,1.72
2023-01-17T09:07:24.347Z,1.71
2023-01-17T09:09:52.679Z,1.73
2023-01-17T09:12:22.125Z,1.76
2023-01-17T09:14:50.204Z,1.80
2023-01-17T09:17:17.694Z,1.81
2023-01-17T09:19:48.626Z,1.83
2023-01-17T09:22:16.388Z,1.89
2023-01-17T09:24:43.947Z,1.94
2023-01-17T09:27:11.498Z,1.99
2023-01-17T09:29:38.989Z,2.01
2023-01-17T09:32:06.740Z,2.04
2023-01-17T09:34:34.309Z,2.06
2023-01-17T09:37:03.192Z,2.12
2023-01-17T09:39:30.733Z,2.21
2023-01-17T09:42:04.013Z,2.34
2023-01-17T09:44:42.262Z,2.54
2023-01-17T09:47:19.921Z,2.71
2023-01-17T09:49:48.410Z,2.78
2023-01-17T09:52:20.930Z,2.81
2023-01-17T09:54:50.066Z,2.86
2023-01-17T09:57:31.990Z,2.95
2023-01-17T10:00:07.697Z,3.02
2023-01-17T10:02:51.748Z,3.03
2023-01-17T10:05:33.713Z,3.03
2023-01-17T10:08:14.730Z,3.04
2023-01-17T10:10:44.144Z,3.03
2023-01-17T10:13:27.548Z,3.00
2023-01-17T10:16:13.370Z,3.00
2023-01-17T10:18:57.044Z,2.99
2023-01-17T10:21:34.613Z,2.98
2023-01-17T10:24:25.032Z,2.99
2023-01-17T10:26:56.209Z,2.99
2023-01-17T10:29:27.935Z,2.97
2023-01-17T10:32:00.523Z,2.99
2023-01-17T10:34:34.019Z,3.03
2023-01-17T10:37:07.179Z,3.04
2023-01-17T10:39:36.442Z,3.06
2023-01-17T10:42:14.299Z,3.05
2023-01-17T10:44:47.138Z,3.04
2023-01-17T10:47:20.689Z,3.05
2023-01-17T10:49:51.963Z,3.08
2023-01-17T10:52:31.096Z,3.11
2023-01-17T10:55:11.459Z,3.26
2023-01-17T10:57:42.670Z,3.39
2023-01-17T11:00:49.000Z,3.50
2023-01-17T11:03:20.701Z,3.68
2023-01-17T11:06:16.360Z,3.84
2023-01-17T11:08:51.868Z,3.96
2023-01-17T11:11:21.641Z,4.07
2023-01-17T11:13:50.203Z,4.10
2023-01-17T11:16:21.112Z,4.04
2023-01-17T11:19:05.488Z,3.98
2023-01-17T11:21:33.758Z,3.95
2023-01-17T11:24:11.411Z,3.86
2023-01-17T11:26:49.313Z,3.93
2023-01-17T11:29:29.631Z,4.03
2023-01-17T11:31:57.413Z,4.11
2023-01-17T11:34:26.440Z,4.09
2023-01-17T11:37:09.862Z,4.01
2023-01-17T11:39:37.417Z,3.96
2023-01-17T11:42:32.880Z,3.89
2023-01-17T11:45:24.384Z,3.81
2023-01-17T11:48:10.101Z,3.80
2023-01-17T11:50:39.952Z,3.79
2023-01-17T11:53:15.593Z,3.90
2023-01-17T11:55:53.885Z,4.03
2023-01-17T11:58:24.133Z,4.07
2023-01-17T12:01:00.414Z,4.14
2023-01-17T12:03:58.019Z,4.13
2023-01-17T12:06:44.792Z,4.16
2023-01-17T12:09:28.352Z,4.23
2023-01-17T12:12:22.068Z,4.42
2023-01-17T12:15:03.180Z,4.62
2023-01-17T12:17:45.326Z,4.76
2023-01-17T12:20:23.852Z,4.86
2023-01-17T12:23:17.659Z,4.84
2023-01-17T12:25:57.718Z,4.71
2023-01-17T12:28:47.174Z,4.57
2023-01-17T12:31:28.755Z,4.50
2023-01-17T12:34:02.902Z,4.42
2023-01-17T12:36:40.779Z,4.33
2023-01-17T12:39:11.841Z,4.36
2023-01-17T12:41:57.369Z,4.38
2023-01-17T12:44:38.974Z,4.35
2023-01-17T12:47:08.247Z,4.27
2023-01-17T12:49:42.549Z,4.28
2023-01-17T12:52:19.306Z,4.19
2023-01-17T12:54:51.412Z,4.21
2023-01-17T12:57:23.384Z,4.20
2023-01-17T12:59:59.122Z,4.10
2023-01-17T13:02:37.335Z,4.04
2023-01-17T13:05:09.783Z,4.05
2023-01-17T13:07:46.730Z,4.09
2023-01-17T13:10:31.849Z,4.32
2023-01-17T13:13:05.736Z,4.53
2023-01-17T13:15:37.513Z,4.70
2023-01-17T13:18:11.522Z,4.92
2023-01-17T13:20:57.840Z,5.12
2023-01-17T13:23:31.567Z,5.32
2023-01-17T13:26:00.153Z,5.42
2023-01-17T13:28:44.870Z,5.58
2023-01-17T13:31:24.203Z,5.74
2023-01-17T13:34:12.192Z,5.94
2023-01-17T13:36:57.834Z,6.03
2023-01-17T13:39:44.636Z,6.15
2023-01-17T13:42:23.598Z,6.27
2023-01-17T13:44:51.464Z,6.40
2023-01-17T13:47:49.410Z,6.44
2023-01-17T13:50:50.459Z,6.51
2023-01-17T13:53:57.166Z,6.63
2023-01-17T13:56:35.305Z,6.71
2023-01-17T13:59:05.598Z,6.79
2023-01-17T14:01:53.309Z,6.73
2023-01-17T14:04:22.162Z,6.60
2023-01-17T14:06:56.762Z,6.59
2023-01-17T14:09:28.659Z,6.54
2023-01-17T14:12:03.697Z,6.50
2023-01-17T14:14:45.456Z,6.46
2023-01-17T14:17:47.988Z,6.36
2023-01-17T14:20:51.262Z,6.30
2023-01-17T14:23:36.020Z,6.24
2023-01-17T14:26:21.934Z,6.10
2023-01-17T14:28:49.837Z,5.90
2023-01-17T14:31:19.211Z,5.78
2023-01-17T14:33:46.734Z,5.65
2023-01-17T14:36:24.857Z,5.50
2023-01-17T14:38:54.563Z,5.36
2023-01-17T14:41:25.371Z,5.19
2023-01-17T14:43:53.337Z,5.06
2023-01-17T14:46:26.095Z,4.97
2023-01-17T14:49:00.575Z,4.91
2023-01-17T14:51:28.384Z,4.82
2023-01-17T14:53:58.767Z,4.75
2023-01-17T14:56:27.986Z,4.65
2023-01-17T14:59:06.567Z,4.46
2023-01-17T15:01:36.224Z,4.35
2023-01-17T15:04:04.958Z,4.24
2023-01-17T15:06:38.693Z,4.12
2023-01-17T15:09:19.441Z,4.02
2023-01-17T15:11:48.712Z,3.92
2023-01-17T15:14:22.096Z,3.84
2023-01-17T15:16:51.936Z,3.72
2023-01-17T15:19:20.406Z,3.64
2023-01-17T15:21:50.816Z,3.57
2023-01-17T15:24:23.520Z,3.51
2023-01-17T15:26:51.688Z,3.45
2023-01-17T15:29:25.979Z,3.40
2023-01-17T15:31:58.123Z,3.33
2023-01-17T15:34:30.402Z,3.25
2023-01-17T15:37:01.079Z,3.15
2023-01-17T15:39:32.587Z,3.09
2023-01-17T15:42:03.588Z,3.02
2023-01-17T15:44:50.242Z,2.92
2023-01-17T15:47:28.971Z,2.79
2023-01-17T15:49:56.675Z,2.69
2023-01-17T15:52:24.284Z,2.58
2023-01-17T15:54:54.730Z,2.47
2023-01-17T15:57:26.771Z,2.39
2023-01-17T16:00:01.050Z,2.28
2023-01-17T16:02:37.394Z,2.18
2023-01-17T16:05:33.291Z,2.08
2023-01-17T16:08:33.570Z,1.99
2023-01-17T16:11:06.244Z,1.89
2023-01-17T16:13:37.104Z,1.81
2023-01-17T16:16:16.906Z,1.75
2023-01-17T16:18:46.417Z,1.68
2023-01-17T16:21:19.631Z,1.61
2023-01-17T16:23:47.197Z,1.56
2023-01-17T16:26:16.799Z,1.48
2023-01-17T16:28:44.584Z,1.42
2023-01-17T16:31:12.533Z,1.36
2023-01-17T16:33:42.021Z,1.30
2023-01-17T16:36:14.797Z,1.26
2023-01-17T16:38:43.317Z,1.20
2023-01-17T16:41:11.396Z,1.15
2023-01-17T16:43:40.329Z,1.09
2023-01-17T16:46:08.221Z,1.02
2023-01-17T16:48:38.251Z,0.97
2023-01-17T16:51:07.883Z,0.90
2023-01-17T16:53:37.000Z,0.85
2023-01-17T16:56:11.915Z,0.78
2023-01-17T16:58:41.833Z,0.72
2023-01-17T17:01:10.686Z,0.66
2023-01-17T17:03:38.473Z,0.59
2023-01-17T17:06:06.315Z,0.52
2023-01-17T17:08:34.989Z,0.46
2023-01-17T17:11:13.139Z,0.39
2023-01-17T17:13:43.079Z,0.30
2023-01-17T17:16:12.878Z,0.23
2023-01-17T17:18:40.452Z,0.14
2023-01-17T17:21:08.382Z,0.06
2023-01-17T17:23:35.861Z,0.01
2023-01-17T17:26:03.434Z,-0.06
2023-01-17T17:28:30.993Z,-0.11
2023-01-17T17:31:10.275Z,-0.16
2023-01-17T17:33:38.697Z,-0.21
2023-01-17T17:36:09.983Z,-0.26
2023-01-17T17:38:38.041Z,-0.31
2023-01-17T17:41:07.393Z,-0.35
2023-01-17T17:43:40.476Z,-0.39
2023-01-17T17:46:09.952Z,-0.43
2023-01-17T17:48:37.826Z,-0.46
2023-01-17T17:51:06.266Z,-0.49
2023-01-17T17:53:34.485Z,-0.55
2023-01-17T17:56:07.028Z,-0.60
2023-01-17T17:58:36.196Z,-0.64
2023-01-17T18:01:05.473Z,-0.67
2023-01-17T18:03:35.115Z,-0.70
2023-01-17T18:06:05.026Z,-0.74
2023-01-17T18:08:33.650Z,-0.79
2023-01-17T18:11:02.876Z,-0.81
2023-01-17T18:13:31.650Z,-0.84
2023-01-17T18:16:05.546Z,-0.87
2023-01-17T18:18:35.157Z,-0.88
2023-01-17T18:21:08.655Z,-0.92
2023-01-17T18:23:38.264Z,-0.97
2023-01-17T18:26:06.235Z,-1.00
2023-01-17T18:28:33.976Z,-1.03
2023-01-17T18:31:07.135Z,-1.08
2023-01-17T18:33:38.572Z,-1.13
2023-01-17T18:36:08.115Z,-1.16
2023-01-17T18:38:39.661Z,-1.20
2023-01-17T18:41:08.407Z,-1.25
2023-01-17T18:43:36.583Z,-1.28
2023-01-17T18:46:04.688Z,-1.33
2023-01-17T18:48:32.259Z,-1.37
2023-01-17T18:51:03.356Z,-1.44
2023-01-17T18:53:31.611Z,-1.49
2023-01-17T18:56:00.822Z,-1.52
2023-01-17T18:58:29.615Z,-1.53
2023-01-17T19:01:07.257Z,-1.57
2023-01-17T19:03:34.949Z,-1.61
2023-01-17T19:06:05.734Z,-1.64
2023-01-17T19:08:34.932Z,-1.68
2023-01-17T19:11:04.243Z,-1.72
2023-01-17T19:13:32.628Z,-1.76
2023-01-17T19:16:01.393Z,-1.79
2023-01-17T19:18:29.565Z,-1.84
2023-01-17T19:20:57.187Z,-1.86
2023-01-17T19:23:25.995Z,-1.89
2023-01-17T19:25:55.631Z,-1.92
2023-01-17T19:28:23.229Z,-1.96
2023-01-17T19:31:02.420Z,-1.99
2023-01-17T19:33:29.915Z,-2.02
2023-01-17T19:35:59.930Z,-2.06
2023-01-17T19:38:28.871Z,-2.11
2023-01-17T19:40:56.538Z,-2.12
2023-01-17T19:43:24.370Z,-2.15
2023-01-17T19:45:59.427Z,-2.18
2023-01-17T19:48:27.842Z,-2.21
2023-01-17T19:50:56.105Z,-2.23
2023-01-17T19:53:24.168Z,-2.28
2023-01-17T19:55:52.976Z,-2.29
2023-01-17T19:58:20.453Z,-2.32
2023-01-17T20:00:48.094Z,-2.34
2023-01-17T20:03:15.678Z,-2.34
2023-01-17T20:05:44.859Z,-2.39
2023-01-17T20:08:12.325Z,-2.41
2023-01-17T20:10:39.805Z,-2.45
2023-01-17T20:13:08.890Z,-2.47
2023-01-17T20:15:36.385Z,-2.50
2023-01-17T20:18:03.912Z,-2.52
2023-01-17T20:20:32.538Z,-2.54
2023-01-17T20:23:01.200Z,-2.55
2023-01-17T20:25:28.863Z,-2.58
2023-01-17T20:27:56.730Z,-2.60
2023-01-17T20:30:29.934Z,-2.63
2023-01-17T20:32:57.658Z,-2.67
2023-01-17T20:35:25.358Z,-2.71
2023-01-17T20:37:53.017Z,-2.73
2023-01-17T20:40:20.761Z,-2.75
2023-01-17T20:42:48.337Z,-2.77
2023-01-17T20:45:16.127Z,-2.78
2023-01-17T20:47:45.107Z,-2.79
2023-01-17T20:50:12.915Z,-2.80
2023-01-17T20:52:40.387Z,-2.83
2023-01-17T20:55:09.189Z,-2.83
2023-01-17T20:57:36.661Z,-2.87
2023-01-17T21:00:05.735Z,-2.89
2023-01-17T21:02:33.328Z,-2.90
2023-01-17T21:05:03.644Z,-2.94
2023-01-17T21:07:31.157Z,-2.98
2023-01-17T21:09:58.637Z,-3.01
2023-01-17T21:12:26.193Z,-3.01
2023-01-17T21:14:53.774Z,-3.03
2023-01-17T21:17:21.274Z,-3.03
2023-01-17T21:19:48.747Z,-3.05
2023-01-17T21:22:17.807Z,-3.06
2023-01-17T21:24:45.359Z,-3.08
2023-01-17T21:27:12.916Z,-3.07
2023-01-17T21:29:40.465Z,-3.09
2023-01-17T21:32:08.665Z,-3.11
2023-01-17T21:34:36.176Z,-3.11
2023-01-17T21:37:03.672Z,-3.11
2023-01-17T21:39:32.627Z,-3.12
2023-01-17T21:42:00.148Z,-3.13
2023-01-17T21:44:27.646Z,-3.14
2023-01-17T21:46:56.572Z,-3.14
2023-01-17T21:49:24.545Z,-3.16
2023-01-17T21:52:09.720Z,-3.17
2023-01-17T21:54:56.142Z,-3.17
2023-01-17T21:57:41.862Z,-3.19
2023-01-17T22:00:14.304Z,-3.19
2023-01-17T22:02:43.519Z,-3.19
2023-01-17T22:05:11.499Z,-3.20
2023-01-17T22:07:39.927Z,-3.21
2023-01-17T22:10:10.068Z,-3.20
2023-01-17T22:12:37.555Z,-3.22
2023-01-17T22:15:06.197Z,-3.24
2023-01-17T22:17:33.965Z,-3.28
2023-01-17T22:20:01.469Z,-3.28
2023-01-17T22:22:32.979Z,-3.28
2023-01-17T22:25:00.479Z,-3.31
2023-01-17T22:27:30.134Z,-3.32
2023-01-17T22:29:57.618Z,-3.34
2023-01-17T22:32:25.230Z,-3.36
2023-01-17T22:34:53.496Z,-3.38
2023-01-17T22:37:21.005Z,-3.38
2023-01-17T22:39:48.481Z,-3.39
2023-01-17T22:42:16.594Z,-3.36
2023-01-17T22:44:45.647Z,-3.37
2023-01-17T22:47:13.333Z,-3.37
2023-01-17T22:49:40.861Z,-3.38
2023-01-17T22:52:08.510Z,-3.36
2023-01-17T22:54:35.965Z,-3.37
2023-01-17T22:57:03.479Z,-3.36
2023-01-17T22:59:33.784Z,-3.37
2023-01-17T23:02:02.721Z,-3.39
2023-01-17T23:04:30.251Z,-3.39
2023-01-17T23:06:57.768Z,-3.41
2023-01-17T23:09:25.284Z,-3.41
2023-01-17T23:11:55.092Z,-3.44
2023-01-17T23:14:24.675Z,-3.44
2023-01-17T23:17:11.737Z,-3.45
2023-01-17T23:19:42.567Z,-3.47
2023-01-17T23:22:19.237Z,-3.50
2023-01-17T23:24:53.371Z,-3.51
2023-01-17T23:27:40.594Z,-3.54
2023-01-17T23:30:11.676Z,-3.54
2023-01-17T23:32:40.014Z,-3.57
2023-01-17T23:35:09.191Z,-3.56
2023-01-17T23:37:54.680Z,-3.58
2023-01-17T23:40:22.295Z,-3.60
2023-01-17T23:43:07.828Z,-3.61
2023-01-17T23:45:36.620Z,-3.62
2023-01-17T23:48:05.580Z,-3.62
2023-01-17T23:50:34.521Z,-3.64
2023-01-17T23:53:06.784Z,-3.65
2023-01-17T23:55:35.902Z,-3.65
2023-01-17T23:58:03.632Z,-3.67
